This is the latest recevied weather packets stored in our database for station/object OE-11372. If no packets are shown the sender has not sent any weather packets the latest 10 day(s).
| Time | Temp. | Humidity | Pressure | Rain* | Wind** | Luminosity | Snow |
|---|---|---|---|---|---|---|---|
| 1787908275 | 27.22° C | 36% | 852.5 hPa | 0 mm | - | 634 W/m² | - |
| 1787907903 | 25° C | 42% | 852.1 hPa | 0 mm | - | 618 W/m² | - |
| 1787907303 | 21.11° C | 64% | 851.9 hPa | 0 mm | - | 552 W/m² | - |
| 1787906475 | 21.11° C | 62% | 852 hPa | 0 mm | - | 297 W/m² | - |
| 1787906102 | 20.56° C | 65% | 851.8 hPa | 0 mm | - | 404 W/m² | - |
| 1787905502 | 19.44° C | 67% | 851.5 hPa | 0 mm | - | 544 W/m² | - |
| 1787904676 | 20° C | 62% | 851.5 hPa | 0 mm | - | 544 W/m² | - |
| 1787904303 | 19.44° C | 69% | 852 hPa | 0 mm | - | 470 W/m² | - |
| 1787903703 | 18.33° C | 71% | 851.9 hPa | 0 mm | - | 329 W/m² | - |
| 1787902875 | 18.33° C | 73% | 851.9 hPa | 0 mm | - | 313 W/m² | - |
| 1787902503 | 17.22° C | 76% | 851.7 hPa | 0 mm | - | 255 W/m² | - |
| 1787901903 | 17.22° C | 79% | 851.7 hPa | 0 mm | - | 181 W/m² | - |
| 1787901075 | 17.22° C | 78% | 851.5 hPa | 0 mm | - | 181 W/m² | - |
| 1787900702 | 17.78° C | 75% | 851.4 hPa | 0 mm | - | 148 W/m² | - |
| 1787900103 | 17.78° C | 75% | 851.6 hPa | 0 mm | - | 132 W/m² | - |
| 1787899276 | 17.78° C | 76% | 851.7 hPa | 0 mm | - | 124 W/m² | - |
| 1787898902 | 17.22° C | 75% | 851.9 hPa | 0 mm | - | 91 W/m² | - |
| 1787898303 | 17.22° C | 75% | 852 hPa | 0 mm | - | 115 W/m² | - |
| 1787897475 | 16.67° C | 79% | 852 hPa | 0 mm | - | 124 W/m² | - |
| 1787897102 | 16.11° C | 79% | 851.7 hPa | 0 mm | - | 124 W/m² | - |
| 1787896502 | 16.11° C | 79% | 851.9 hPa | 0 mm | - | 99 W/m² | - |
| 1787895675 | 15.56° C | 80% | 851.9 hPa | 0 mm | - | 82 W/m² | - |
| 1787895303 | 15.56° C | 80% | 851.8 hPa | 0 mm | - | 99 W/m² | - |
| 1787894703 | 15.56° C | 81% | 851.7 hPa | 0 mm | - | 74 W/m² | - |
| 1787893876 | 15° C | 81% | 851.7 hPa | 0 mm | - | 41 W/m² | - |
* Rain latest hour (hover to see other rain measurements)
** Current wind speed in m/s (hover to see current wind gust speed)